createdAt,value
2018-03-22T00:00:54.064Z,71.00
2018-03-22T00:03:21.528Z,71.23
2018-03-22T00:05:48.919Z,71.25
2018-03-22T00:08:16.341Z,71.52
2018-03-22T00:10:43.793Z,71.43
2018-03-22T00:13:11.156Z,71.53
2018-03-22T00:15:38.671Z,71.77
2018-03-22T00:18:06.095Z,72.18
2018-03-22T00:20:33.580Z,71.73
2018-03-22T00:23:00.971Z,71.78
2018-03-22T00:25:28.368Z,71.86
2018-03-22T00:27:55.774Z,71.51
2018-03-22T00:30:23.170Z,71.34
2018-03-22T00:32:50.576Z,71.56
2018-03-22T00:35:18.022Z,71.84
2018-03-22T00:37:45.439Z,72.31
2018-03-22T00:40:12.831Z,72.08
2018-03-22T00:42:40.219Z,72.50
2018-03-22T00:45:07.619Z,71.61
2018-03-22T00:47:35.010Z,71.91
2018-03-22T00:50:05.486Z,72.05
2018-03-22T00:52:32.974Z,71.78
2018-03-22T00:55:00.434Z,71.79
2018-03-22T00:57:27.826Z,72.08
2018-03-22T00:59:55.238Z,71.31
2018-03-22T01:02:22.631Z,71.34
2018-03-22T01:04:51.911Z,71.57
2018-03-22T01:07:19.358Z,71.69
2018-03-22T01:09:46.763Z,71.94
2018-03-22T01:12:14.189Z,72.21
2018-03-22T01:14:41.575Z,71.83
2018-03-22T01:17:09.115Z,72.14
2018-03-22T01:19:36.522Z,72.19
2018-03-22T01:22:03.910Z,72.05
2018-03-22T01:24:31.311Z,71.91
2018-03-22T01:26:58.699Z,71.99
2018-03-22T01:29:26.117Z,71.76
2018-03-22T01:31:53.539Z,71.84
2018-03-22T01:34:20.959Z,71.79
2018-03-22T01:36:48.356Z,71.92
2018-03-22T01:39:15.757Z,72.09
2018-03-22T01:41:43.146Z,71.87
2018-03-22T01:44:10.547Z,71.70
2018-03-22T01:46:37.959Z,71.74
2018-03-22T01:49:05.410Z,71.92
2018-03-22T01:51:32.811Z,72.17
2018-03-22T01:54:00.239Z,72.63
2018-03-22T01:56:27.687Z,71.92
2018-03-22T01:58:55.100Z,71.89
2018-03-22T02:01:22.576Z,72.17
2018-03-22T02:03:49.972Z,72.68
2018-03-22T02:06:17.426Z,72.95
2018-03-22T02:08:44.819Z,73.07
2018-03-22T02:11:12.222Z,73.60
2018-03-22T02:13:39.618Z,74.61
2018-03-22T02:16:07.107Z,74.89
2018-03-22T02:18:34.486Z,74.99
2018-03-22T02:21:01.903Z,75.66
2018-03-22T02:23:29.288Z,76.38
2018-03-22T02:25:56.702Z,76.85
2018-03-22T02:28:24.085Z,77.21
2018-03-22T02:30:51.526Z,77.30
2018-03-22T02:33:18.980Z,78.01
2018-03-22T02:35:46.388Z,79.41
2018-03-22T02:38:13.776Z,80.18
2018-03-22T02:40:41.179Z,79.58
2018-03-22T02:43:08.584Z,79.66
2018-03-22T02:45:35.995Z,80.09
2018-03-22T02:48:03.378Z,80.82
2018-03-22T02:50:30.778Z,81.00
2018-03-22T02:52:58.188Z,81.40
2018-03-22T02:55:25.578Z,81.55
2018-03-22T02:57:52.996Z,82.42
2018-03-22T03:00:20.512Z,82.40
2018-03-22T03:02:47.963Z,82.98
2018-03-22T03:05:15.351Z,83.95
2018-03-22T03:07:42.751Z,84.21
2018-03-22T03:10:10.146Z,84.57
2018-03-22T03:12:37.555Z,84.47
2018-03-22T03:15:05.046Z,84.26
2018-03-22T03:17:32.519Z,84.70
2018-03-22T03:19:59.961Z,85.28
2018-03-22T03:22:27.413Z,84.66
2018-03-22T03:24:54.797Z,84.69
2018-03-22T03:27:22.186Z,85.08
2018-03-22T03:29:49.675Z,85.38
2018-03-22T03:32:17.075Z,85.92
2018-03-22T03:34:44.483Z,85.58
2018-03-22T03:37:11.882Z,85.55
2018-03-22T03:39:39.299Z,85.97
2018-03-22T03:42:06.695Z,85.67
2018-03-22T03:44:34.085Z,85.52
2018-03-22T03:47:01.513Z,85.75
2018-03-22T03:49:28.908Z,86.13
2018-03-22T03:51:56.319Z,86.70
2018-03-22T03:54:23.819Z,86.79
2018-03-22T03:56:51.219Z,87.47
2018-03-22T03:59:18.614Z,87.75
2018-03-22T04:01:46.834Z,88.12
2018-03-22T04:04:14.226Z,88.41
2018-03-22T04:06:41.632Z,88.07
2018-03-22T04:09:09.031Z,88.06
2018-03-22T04:11:36.435Z,88.08
2018-03-22T04:14:03.831Z,87.91
2018-03-22T04:16:31.298Z,88.12
2018-03-22T04:18:58.690Z,88.37
2018-03-22T04:21:26.231Z,88.49
2018-03-22T04:23:53.618Z,89.08
2018-03-22T04:26:21.012Z,89.22
2018-03-22T04:28:48.414Z,89.34
2018-03-22T04:31:15.807Z,89.52
2018-03-22T04:33:43.206Z,88.80
2018-03-22T04:36:10.600Z,88.22
2018-03-22T04:38:37.998Z,88.60
2018-03-22T04:41:05.395Z,88.32
2018-03-22T04:43:32.839Z,88.25
2018-03-22T04:46:00.233Z,87.90
2018-03-22T04:48:27.626Z,88.32
2018-03-22T04:50:55.024Z,88.44
2018-03-22T04:53:22.419Z,88.37
2018-03-22T04:55:49.809Z,88.44
2018-03-22T04:58:17.228Z,88.98
2018-03-22T05:00:44.620Z,89.37
2018-03-22T05:03:12.041Z,89.77
2018-03-22T05:05:39.435Z,90.05
2018-03-22T05:08:06.855Z,89.78
2018-03-22T05:10:34.248Z,89.84
2018-03-22T05:13:01.658Z,90.10
2018-03-22T05:15:29.051Z,89.48
2018-03-22T05:17:56.469Z,89.30
2018-03-22T05:20:23.878Z,89.38
2018-03-22T05:22:51.291Z,90.08
2018-03-22T05:25:18.714Z,90.00
2018-03-22T05:27:46.179Z,90.12
2018-03-22T05:30:13.606Z,90.17
2018-03-22T05:32:41.083Z,89.94
2018-03-22T05:35:08.545Z,90.71
2018-03-22T05:37:36.019Z,91.01
2018-03-22T05:40:03.423Z,90.99
2018-03-22T05:42:30.812Z,90.66
2018-03-22T05:44:58.202Z,91.16
2018-03-22T05:47:25.589Z,91.41
2018-03-22T05:49:52.991Z,91.26
2018-03-22T05:52:20.379Z,91.68
2018-03-22T05:54:47.775Z,91.71
2018-03-22T05:57:15.171Z,91.59
2018-03-22T05:59:42.570Z,91.38
2018-03-22T06:02:09.962Z,91.37
2018-03-22T06:04:37.383Z,91.52
2018-03-22T06:07:04.783Z,91.11
2018-03-22T06:09:32.181Z,91.22
2018-03-22T06:11:59.576Z,91.12
2018-03-22T06:14:26.975Z,91.05
2018-03-22T06:16:54.363Z,91.33
2018-03-22T06:19:21.764Z,91.56
2018-03-22T06:21:49.195Z,91.49
2018-03-22T06:24:16.596Z,92.12
2018-03-22T06:26:43.991Z,92.02
2018-03-22T06:29:11.402Z,92.42
2018-03-22T06:31:38.817Z,92.47
2018-03-22T06:34:06.229Z,92.62
2018-03-22T06:36:33.722Z,92.42
2018-03-22T06:39:01.183Z,92.41
2018-03-22T06:41:28.578Z,92.54
2018-03-22T06:43:55.997Z,92.58
2018-03-22T06:46:23.390Z,92.61
2018-03-22T06:48:50.817Z,92.78
2018-03-22T06:51:18.215Z,92.49
2018-03-22T06:53:45.607Z,92.63
2018-03-22T06:56:13.124Z,92.42
2018-03-22T06:58:40.511Z,92.30
2018-03-22T07:01:07.913Z,91.99
2018-03-22T07:03:35.299Z,91.84
2018-03-22T07:06:02.695Z,92.05
2018-03-22T07:08:30.091Z,92.70
2018-03-22T07:10:57.513Z,92.94
2018-03-22T07:13:24.970Z,92.87
2018-03-22T07:15:52.389Z,92.34
2018-03-22T07:18:19.770Z,92.20
2018-03-22T07:20:48.059Z,92.54
2018-03-22T07:23:15.446Z,92.61
2018-03-22T07:25:42.843Z,92.34
2018-03-22T07:28:10.322Z,92.52
2018-03-22T07:30:37.718Z,92.49
2018-03-22T07:33:05.127Z,92.49
2018-03-22T07:35:32.523Z,92.22
2018-03-22T07:37:59.941Z,92.01
2018-03-22T07:40:27.330Z,91.82
2018-03-22T07:43:00.445Z,91.45
2018-03-22T07:45:27.848Z,91.55
2018-03-22T07:47:55.235Z,91.44
2018-03-22T07:50:22.655Z,91.39
2018-03-22T07:52:50.039Z,91.35
2018-03-22T07:55:17.444Z,91.37
2018-03-22T07:57:44.835Z,90.96
2018-03-22T08:00:12.235Z,90.43
2018-03-22T08:02:39.722Z,90.34
2018-03-22T08:05:07.135Z,90.21
2018-03-22T08:07:34.523Z,90.01
2018-03-22T08:10:01.923Z,90.29
2018-03-22T08:15:03.155Z,90.62
2018-03-22T08:17:30.547Z,90.25
2018-03-22T08:19:57.967Z,90.47
2018-03-22T08:22:25.357Z,90.52
2018-03-22T08:24:52.757Z,90.30
2018-03-22T08:27:20.150Z,90.43
2018-03-22T08:29:47.534Z,90.68
2018-03-22T08:32:14.934Z,91.14
2018-03-22T08:34:42.324Z,91.05
2018-03-22T08:37:09.751Z,90.63
2018-03-22T08:39:37.133Z,90.41
2018-03-22T08:42:04.531Z,90.15
2018-03-22T08:44:31.927Z,90.25
2018-03-22T08:46:59.372Z,90.62
2018-03-22T08:49:26.768Z,90.46
2018-03-22T08:51:54.166Z,90.58
2018-03-22T08:54:21.594Z,90.90
2018-03-22T08:56:49.051Z,90.80
2018-03-22T08:59:16.507Z,91.02
2018-03-22T09:01:43.963Z,91.04
2018-03-22T09:04:11.346Z,90.73
2018-03-22T09:06:38.747Z,90.79
2018-03-22T09:09:06.143Z,90.77
2018-03-22T09:11:33.530Z,90.68
2018-03-22T09:14:00.926Z,90.24
2018-03-22T09:16:28.392Z,90.37
2018-03-22T09:18:55.847Z,90.10
2018-03-22T09:21:23.242Z,90.86
2018-03-22T09:23:50.659Z,90.41
2018-03-22T09:26:18.055Z,90.66
2018-03-22T09:28:45.489Z,90.97
2018-03-22T09:31:12.871Z,90.60
2018-03-22T09:33:40.271Z,90.59
2018-03-22T09:36:07.670Z,91.29
2018-03-22T09:38:35.102Z,91.29
2018-03-22T09:41:02.459Z,90.53
2018-03-22T09:43:29.851Z,90.96
2018-03-22T09:45:57.318Z,91.26
2018-03-22T09:48:24.708Z,91.80
2018-03-22T09:50:52.139Z,92.04
2018-03-22T09:53:19.550Z,91.34
2018-03-22T09:55:46.934Z,91.42
2018-03-22T09:58:14.390Z,91.27
2018-03-22T10:00:41.779Z,91.12
2018-03-22T10:03:09.174Z,91.18
2018-03-22T10:05:36.578Z,91.84
2018-03-22T10:08:03.962Z,91.81
2018-03-22T10:10:31.362Z,91.95
2018-03-22T10:12:58.766Z,91.85
2018-03-22T10:15:26.191Z,91.56
2018-03-22T10:17:53.590Z,91.26
2018-03-22T10:20:21.097Z,91.28
2018-03-22T10:22:48.538Z,90.54
2018-03-22T10:25:15.934Z,90.66
2018-03-22T10:27:43.327Z,90.25
2018-03-22T10:30:10.724Z,90.53
2018-03-22T10:32:38.162Z,91.12
2018-03-22T10:35:05.550Z,90.96
2018-03-22T10:37:32.950Z,91.17
2018-03-22T10:40:00.434Z,90.67
2018-03-22T10:42:27.831Z,90.12
2018-03-22T10:44:55.222Z,89.35
2018-03-22T10:47:22.610Z,89.57
2018-03-22T10:49:50.007Z,90.48
2018-03-22T10:52:17.396Z,89.99
2018-03-22T10:54:44.863Z,90.33
2018-03-22T10:57:12.259Z,90.66
2018-03-22T10:59:39.672Z,90.65
2018-03-22T11:05:06.235Z,90.32
2018-03-22T11:07:33.628Z,90.37
2018-03-22T11:10:01.015Z,90.28
2018-03-22T11:12:28.415Z,90.35
2018-03-22T11:14:55.802Z,89.89
2018-03-22T11:17:23.199Z,90.08
2018-03-22T11:19:50.637Z,90.10
2018-03-22T11:22:17.984Z,91.04
2018-03-22T11:24:45.466Z,91.80
2018-03-22T11:27:12.943Z,91.84
2018-03-22T11:29:40.402Z,91.69
2018-03-22T11:32:07.847Z,91.32
2018-03-22T11:34:35.242Z,91.03
2018-03-22T11:37:02.643Z,90.36
2018-03-22T11:39:30.035Z,90.43
2018-03-22T11:41:57.514Z,91.18
2018-03-22T11:44:25.198Z,91.27
2018-03-22T11:46:52.519Z,91.51
2018-03-22T11:49:19.915Z,90.47
2018-03-22T11:51:47.311Z,90.14
2018-03-22T11:54:14.795Z,90.29
2018-03-22T11:56:42.190Z,89.40
2018-03-22T11:59:09.616Z,89.31
2018-03-22T12:01:36.978Z,89.18
2018-03-22T12:04:04.414Z,89.31
2018-03-22T12:06:31.811Z,89.88
2018-03-22T12:08:59.211Z,89.19
2018-03-22T12:11:26.600Z,88.98
2018-03-22T12:13:54.034Z,88.85
2018-03-22T12:16:21.492Z,88.56
2018-03-22T12:18:48.886Z,89.15
2018-03-22T12:21:16.271Z,89.14
2018-03-22T12:23:43.763Z,89.81
2018-03-22T12:26:11.172Z,90.38
2018-03-22T12:28:38.567Z,90.13
2018-03-22T12:31:05.971Z,90.46
2018-03-22T12:33:33.363Z,90.41
2018-03-22T12:36:00.778Z,90.00
2018-03-22T12:38:28.170Z,89.80
2018-03-22T12:40:55.565Z,90.38
2018-03-22T12:43:23.039Z,90.81
2018-03-22T12:45:50.343Z,90.99
2018-03-22T12:48:17.741Z,90.83
2018-03-22T12:50:45.133Z,90.41
2018-03-22T12:53:12.624Z,90.38
2018-03-22T12:55:40.010Z,89.40
2018-03-22T12:58:07.430Z,89.02
2018-03-22T13:00:34.890Z,89.83
2018-03-22T13:03:02.351Z,89.77
2018-03-22T13:05:29.802Z,89.22
2018-03-22T13:07:57.254Z,89.91
2018-03-22T13:10:24.649Z,90.58
2018-03-22T13:12:52.034Z,90.04
2018-03-22T13:15:19.423Z,91.04
2018-03-22T13:17:46.878Z,90.83
2018-03-22T13:20:14.259Z,90.71
2018-03-22T13:22:41.652Z,90.77
2018-03-22T13:25:09.144Z,90.07
2018-03-22T13:27:36.535Z,89.97
2018-03-22T13:30:03.946Z,89.22
2018-03-22T13:32:31.329Z,89.90
2018-03-22T13:34:58.728Z,89.35
2018-03-22T13:37:26.111Z,89.11
2018-03-22T13:39:53.494Z,88.97
2018-03-22T13:42:20.951Z,89.13
2018-03-22T13:44:48.342Z,88.38
2018-03-22T13:47:15.727Z,87.48
2018-03-22T13:49:43.113Z,87.17
2018-03-22T13:52:10.498Z,86.74
2018-03-22T13:54:37.925Z,86.23
2018-03-22T13:57:05.295Z,87.43
2018-03-22T13:59:32.721Z,86.66
2018-03-22T14:02:00.174Z,84.78
2018-03-22T14:04:27.563Z,84.45
2018-03-22T14:06:54.986Z,83.91
2018-03-22T14:09:22.390Z,84.04
2018-03-22T14:11:49.769Z,83.07
2018-03-22T14:14:17.155Z,82.77
2018-03-22T14:16:44.543Z,83.05
2018-03-22T14:19:11.931Z,84.62
2018-03-22T14:21:39.315Z,84.63
2018-03-22T14:24:06.707Z,84.77
2018-03-22T14:26:34.090Z,84.69
2018-03-22T14:29:01.482Z,84.28
2018-03-22T14:31:28.863Z,83.93
2018-03-22T14:33:56.271Z,83.03
2018-03-22T14:36:23.650Z,81.98
2018-03-22T14:38:51.049Z,81.93
2018-03-22T14:41:18.473Z,82.17
2018-03-22T14:43:45.896Z,81.81
2018-03-22T14:46:13.249Z,82.99
2018-03-22T14:48:40.722Z,83.92
2018-03-22T14:51:08.105Z,83.67
2018-03-22T14:53:35.536Z,83.95
2018-03-22T14:56:02.998Z,83.92
2018-03-22T14:58:30.379Z,84.52
2018-03-22T15:00:57.813Z,85.14
2018-03-22T15:03:25.194Z,84.20
2018-03-22T15:05:52.578Z,83.96
2018-03-22T15:08:19.975Z,83.30
2018-03-22T15:10:47.435Z,83.75
2018-03-22T15:13:14.843Z,83.68
2018-03-22T15:15:42.238Z,82.82
2018-03-22T15:18:09.690Z,82.73
2018-03-22T15:20:37.085Z,81.34
2018-03-22T15:23:04.466Z,80.07
2018-03-22T15:25:31.896Z,80.86
2018-03-22T15:27:59.241Z,80.51
2018-03-22T15:30:26.673Z,79.61
2018-03-22T15:32:54.115Z,79.73
2018-03-22T15:35:21.496Z,80.49
2018-03-22T15:37:48.892Z,79.64
2018-03-22T15:40:16.274Z,79.51
2018-03-22T15:42:43.704Z,78.96
2018-03-22T15:45:11.155Z,78.70
2018-03-22T15:47:38.544Z,79.21
2018-03-22T15:50:05.986Z,79.09
2018-03-22T15:52:33.428Z,79.30
2018-03-22T15:55:00.882Z,79.89
2018-03-22T15:57:28.340Z,79.64
2018-03-22T15:59:55.794Z,80.65
2018-03-22T16:02:23.258Z,80.73
2018-03-22T16:04:50.643Z,80.43
2018-03-22T16:07:18.058Z,80.43
2018-03-22T16:09:45.522Z,81.27
2018-03-22T16:12:12.911Z,80.67
2018-03-22T16:14:40.328Z,80.13
2018-03-22T16:17:07.706Z,80.05
2018-03-22T16:19:35.107Z,80.22
2018-03-22T16:22:02.497Z,81.20
2018-03-22T16:24:29.886Z,81.21
2018-03-22T16:26:57.274Z,80.87
2018-03-22T16:29:24.663Z,80.30
2018-03-22T16:31:52.042Z,79.87
2018-03-22T16:34:19.471Z,79.10
2018-03-22T16:36:46.897Z,79.06
2018-03-22T16:39:14.254Z,78.37
2018-03-22T16:41:41.643Z,78.12
2018-03-22T16:44:09.032Z,78.33
2018-03-22T16:46:36.435Z,79.06
2018-03-22T16:49:03.815Z,78.39
2018-03-22T16:51:31.198Z,79.32
2018-03-22T16:53:58.591Z,80.19
2018-03-22T16:56:26.083Z,79.86
2018-03-22T16:58:53.470Z,79.79
2018-03-22T17:01:20.854Z,80.23
2018-03-22T17:03:48.262Z,80.15
2018-03-22T17:06:15.649Z,80.15
2018-03-22T17:08:43.138Z,79.85
2018-03-22T17:11:10.513Z,79.79
2018-03-22T17:13:37.931Z,79.85
2018-03-22T17:16:05.286Z,80.17
2018-03-22T17:18:32.676Z,79.74
2018-03-22T17:21:00.119Z,79.45
2018-03-22T17:23:27.515Z,79.10
2018-03-22T17:25:54.930Z,79.42
2018-03-22T17:28:22.327Z,79.67
2018-03-22T17:30:49.734Z,79.77
2018-03-22T17:33:17.217Z,80.45
2018-03-22T17:35:44.590Z,80.72
2018-03-22T17:38:12.010Z,81.13
2018-03-22T17:40:39.403Z,81.03
2018-03-22T17:43:06.782Z,81.55
2018-03-22T17:45:34.170Z,81.58
2018-03-22T17:48:01.556Z,81.37
2018-03-22T17:50:28.959Z,81.68
2018-03-22T17:52:56.347Z,81.82
2018-03-22T17:55:23.757Z,81.87
2018-03-22T17:57:51.122Z,81.89
2018-03-22T18:00:18.549Z,81.59
2018-03-22T18:02:45.958Z,82.09
2018-03-22T18:05:13.338Z,81.79
2018-03-22T18:07:40.815Z,81.59
2018-03-22T18:10:08.297Z,81.09
2018-03-22T18:12:35.687Z,81.43
2018-03-22T18:15:03.080Z,81.50
2018-03-22T18:17:30.552Z,81.75
2018-03-22T18:19:58.051Z,81.18
2018-03-22T18:22:25.443Z,81.46
2018-03-22T18:24:52.826Z,81.44
2018-03-22T18:27:20.218Z,80.86
2018-03-22T18:29:47.655Z,81.15
2018-03-22T18:32:15.012Z,80.93
2018-03-22T18:34:42.459Z,81.09
2018-03-22T18:37:09.794Z,81.18
2018-03-22T18:39:37.255Z,80.96
2018-03-22T18:42:04.634Z,80.39
2018-03-22T18:44:32.031Z,79.61
2018-03-22T18:46:59.415Z,79.56
2018-03-22T18:49:26.804Z,79.83
2018-03-22T18:51:54.193Z,80.28
2018-03-22T18:54:21.583Z,80.35
2018-03-22T18:56:48.969Z,80.55
2018-03-22T18:59:16.358Z,80.91
2018-03-22T19:01:43.882Z,80.97
2018-03-22T19:04:11.413Z,81.28
2018-03-22T19:06:38.924Z,80.76
2018-03-22T19:09:06.540Z,80.24
2018-03-22T19:11:34.016Z,79.96
2018-03-22T19:14:01.619Z,79.68
2018-03-22T19:16:29.165Z,79.52
2018-03-22T19:18:56.750Z,79.19
2018-03-22T19:21:24.395Z,79.23
2018-03-22T19:23:51.924Z,78.87
2018-03-22T19:26:19.354Z,77.98
2018-03-22T19:28:46.735Z,78.25
2018-03-22T19:31:14.131Z,78.81
2018-03-22T19:33:41.514Z,78.87
2018-03-22T19:36:08.978Z,78.65
2018-03-22T19:38:36.447Z,78.08
2018-03-22T19:41:03.835Z,78.48
2018-03-22T19:43:32.015Z,78.58
2018-03-22T19:45:59.406Z,78.96
2018-03-22T19:48:26.802Z,79.16
2018-03-22T19:50:54.194Z,79.57
2018-03-22T19:53:21.588Z,79.52
2018-03-22T19:55:48.975Z,79.11
2018-03-22T19:58:16.386Z,79.18
2018-03-22T20:00:43.847Z,80.19
2018-03-22T20:03:11.222Z,79.95
2018-03-22T20:05:38.664Z,79.88
2018-03-22T20:08:05.991Z,79.62
2018-03-22T20:10:33.382Z,79.66
2018-03-22T20:13:00.770Z,79.86
2018-03-22T20:15:28.196Z,79.70
2018-03-22T20:17:55.574Z,80.24
2018-03-22T20:20:22.969Z,79.87
2018-03-22T20:22:50.352Z,80.19
2018-03-22T20:25:17.796Z,80.35
2018-03-22T20:27:45.250Z,80.48
2018-03-22T20:30:12.697Z,80.56
2018-03-22T20:32:40.165Z,80.42
2018-03-22T20:35:07.567Z,79.70
2018-03-22T20:37:34.947Z,80.21
2018-03-22T20:40:02.335Z,80.86
2018-03-22T20:42:29.788Z,80.48
2018-03-22T20:44:57.182Z,80.38
2018-03-22T20:47:24.595Z,80.72
2018-03-22T20:49:52.010Z,80.52
2018-03-22T20:52:19.402Z,80.60
2018-03-22T20:54:46.790Z,80.43
2018-03-22T20:57:14.173Z,80.04
2018-03-22T20:59:41.562Z,80.22
2018-03-22T21:02:08.942Z,80.84
2018-03-22T21:04:36.332Z,82.00
2018-03-22T21:07:03.711Z,81.99
2018-03-22T21:09:31.126Z,81.87
2018-03-22T21:11:58.514Z,81.72
2018-03-22T21:14:25.894Z,81.10
2018-03-22T21:16:53.287Z,81.54
2018-03-22T21:19:20.683Z,82.07
2018-03-22T21:21:48.071Z,82.88
2018-03-22T21:24:15.462Z,82.34
2018-03-22T21:26:42.860Z,81.75
2018-03-22T21:29:10.246Z,81.53
2018-03-22T21:31:37.644Z,81.53
2018-03-22T21:34:05.025Z,81.38
2018-03-22T21:36:32.444Z,81.31
2018-03-22T21:38:59.901Z,81.06
2018-03-22T21:41:27.236Z,80.88
2018-03-22T21:44:06.526Z,81.24
2018-03-22T21:46:33.939Z,81.24
2018-03-22T21:49:01.339Z,81.23
2018-03-22T21:51:28.742Z,81.08
2018-03-22T21:53:56.211Z,80.72
2018-03-22T21:56:23.594Z,79.91
2018-03-22T21:58:50.980Z,80.05
2018-03-22T22:01:18.380Z,80.49
2018-03-22T22:03:45.760Z,80.19
2018-03-22T22:06:13.165Z,79.92
2018-03-22T22:08:40.554Z,79.77
2018-03-22T22:11:07.965Z,80.12
2018-03-22T22:13:35.455Z,80.50
2018-03-22T22:16:02.839Z,81.27
2018-03-22T22:18:30.225Z,81.26
2018-03-22T22:20:57.718Z,82.26
2018-03-22T22:23:25.195Z,83.19
2018-03-22T22:25:52.607Z,84.00
2018-03-22T22:28:20.001Z,84.51
2018-03-22T22:30:47.390Z,84.71
2018-03-22T22:33:14.788Z,84.81
2018-03-22T22:35:42.177Z,84.59
2018-03-22T22:38:09.573Z,84.18
2018-03-22T22:40:36.969Z,83.50
2018-03-22T22:43:04.375Z,82.70
2018-03-22T22:45:31.878Z,82.46
2018-03-22T22:47:59.267Z,81.97
2018-03-22T22:50:26.671Z,81.42
2018-03-22T22:52:54.138Z,81.37
2018-03-22T22:55:21.534Z,81.72
2018-03-22T22:57:48.920Z,81.62
2018-03-22T23:00:16.314Z,82.20
2018-03-22T23:02:43.691Z,82.79
2018-03-22T23:05:11.105Z,83.34
2018-03-22T23:07:38.486Z,84.02
2018-03-22T23:10:05.873Z,83.99
2018-03-22T23:12:33.259Z,84.25
2018-03-22T23:15:00.638Z,84.10
2018-03-22T23:17:28.031Z,83.27
2018-03-22T23:19:55.422Z,82.45
2018-03-22T23:22:22.830Z,81.78
2018-03-22T23:24:50.991Z,81.51
2018-03-22T23:27:18.395Z,81.13
2018-03-22T23:29:45.771Z,80.44
2018-03-22T23:32:13.167Z,81.36
2018-03-22T23:34:40.586Z,81.41
2018-03-22T23:37:07.979Z,81.04
2018-03-22T23:39:35.358Z,80.88
2018-03-22T23:42:02.751Z,81.24
2018-03-22T23:44:30.131Z,81.56
2018-03-22T23:46:57.526Z,80.81
2018-03-22T23:49:25.570Z,79.99
2018-03-22T23:51:52.998Z,80.10
2018-03-22T23:54:20.371Z,80.29
2018-03-22T23:56:47.761Z,80.02
2018-03-22T23:59:15.233Z,80.24
